createdAt,value
2018-09-19T00:02:32.271Z,3.47
2018-09-19T00:05:03.812Z,4.10
2018-09-19T00:07:35.462Z,3.13
2018-09-19T00:10:16.514Z,2.20
2018-09-19T00:12:49.267Z,2.50
2018-09-19T00:15:29.012Z,2.20
2018-09-19T00:18:09.288Z,2.30
2018-09-19T00:20:49.402Z,2.60
2018-09-19T00:23:20.659Z,2.70
2018-09-19T00:25:51.735Z,4.63
2018-09-19T00:28:24.605Z,2.03
2018-09-19T00:30:58.896Z,2.50
2018-09-19T00:33:30.915Z,2.70
2018-09-19T00:36:01.691Z,3.17
2018-09-19T00:38:33.749Z,2.20
2018-09-19T00:41:06.030Z,2.00
2018-09-19T00:43:36.192Z,1.90
2018-09-19T00:46:08.161Z,2.13
2018-09-19T00:48:49.361Z,2.97
2018-09-19T00:51:21.140Z,1.87
2018-09-19T00:54:00.738Z,2.60
2018-09-19T00:56:40.584Z,2.20
2018-09-19T00:59:16.662Z,2.10
2018-09-19T01:01:49.083Z,3.40
2018-09-19T01:04:20.231Z,2.20
2018-09-19T01:07:00.360Z,3.87
2018-09-19T01:09:33.513Z,3.60
2018-09-19T01:12:04.431Z,3.83
2018-09-19T01:14:44.083Z,3.37
2018-09-19T01:17:23.856Z,4.37
2018-09-19T01:20:03.641Z,4.57
2018-09-19T01:22:35.416Z,3.67
2018-09-19T01:25:06.589Z,3.43
2018-09-19T01:27:47.096Z,4.80
2018-09-19T01:30:27.424Z,2.67
2018-09-19T01:33:05.083Z,2.73
2018-09-19T01:35:36.955Z,2.10
2018-09-19T01:38:17.298Z,3.73
2018-09-19T01:40:57.941Z,2.50
2018-09-19T01:43:29.653Z,2.57
2018-09-19T01:46:02.038Z,3.27
2018-09-19T01:54:29.068Z,4.73
2018-09-19T01:57:00.440Z,5.00
2018-09-19T01:59:33.273Z,3.77
2018-09-19T02:02:13.238Z,3.10
2018-09-19T02:04:53.444Z,3.33
2018-09-19T02:07:33.473Z,3.50
2018-09-19T02:10:09.940Z,3.40
2018-09-19T02:12:43.345Z,4.20
2018-09-19T02:15:14.147Z,6.40
2018-09-19T02:17:47.651Z,3.83
2018-09-19T02:20:18.706Z,4.53
2018-09-19T02:22:49.875Z,6.70
2018-09-19T02:25:21.757Z,4.00
2018-09-19T02:28:01.683Z,6.00
2018-09-19T02:30:41.579Z,5.50
2018-09-19T02:33:17.987Z,4.70
2018-09-19T02:35:50.099Z,3.93
2018-09-19T02:38:22.439Z,4.37
2018-09-19T02:40:53.691Z,3.83
2018-09-19T02:43:26.749Z,4.43
2018-09-19T02:46:06.475Z,3.97
2018-09-19T02:48:47.388Z,3.70
2018-09-19T02:51:19.589Z,3.60
2018-09-19T02:53:50.595Z,4.43
2018-09-19T02:56:23.016Z,4.27
2018-09-19T02:58:54.355Z,4.33
2018-09-19T03:01:25.922Z,5.80
2018-09-19T03:03:57.777Z,4.63
2018-09-19T03:06:29.529Z,4.67
2018-09-19T03:09:00.879Z,5.30
2018-09-19T03:11:40.786Z,4.60
2018-09-19T03:14:13.188Z,6.90
2018-09-19T03:16:45.526Z,6.20
2018-09-19T03:19:18.468Z,4.50
2018-09-19T03:21:50.202Z,5.23
2018-09-19T03:24:30.199Z,4.53
2018-09-19T03:27:02.349Z,4.53
2018-09-19T03:29:36.389Z,4.97
2018-09-19T03:32:08.018Z,4.83
2018-09-19T03:34:39.916Z,4.97
2018-09-19T03:37:14.784Z,5.60
2018-09-19T03:39:46.844Z,4.27
2018-09-19T03:42:26.429Z,5.87
2018-09-19T03:44:57.544Z,4.67
2018-09-19T03:47:28.446Z,5.37
2018-09-19T03:50:08.351Z,4.73
2018-09-19T03:52:40.036Z,5.80
2018-09-19T03:55:11.517Z,4.90
2018-09-19T03:57:42.814Z,4.50
2018-09-19T04:00:14.434Z,4.57
2018-09-19T04:02:48.117Z,4.70
2018-09-19T04:05:25.742Z,4.50
2018-09-19T04:07:57.556Z,4.50
2018-09-19T04:10:29.004Z,4.43
2018-09-19T04:13:08.959Z,4.30
2018-09-19T04:15:40.666Z,4.33
2018-09-19T04:18:13.231Z,5.83
2018-09-19T04:20:52.913Z,4.57
2018-09-19T04:23:25.028Z,4.40
2018-09-19T04:26:04.736Z,5.40
2018-09-19T04:28:44.189Z,5.37
2018-09-19T04:31:16.060Z,5.13
2018-09-19T04:33:47.862Z,4.43
2018-09-19T04:36:19.081Z,4.73
2018-09-19T04:38:50.564Z,5.07
2018-09-19T04:41:26.429Z,5.27
2018-09-19T04:43:57.654Z,4.80
2018-09-19T04:46:29.923Z,4.87
2018-09-19T04:49:02.633Z,4.53
2018-09-19T04:51:33.126Z,4.07
2018-09-19T04:54:05.107Z,4.87
2018-09-19T04:56:36.326Z,4.80
2018-09-19T04:59:10.011Z,9.27
2018-09-19T05:01:41.708Z,5.10
2018-09-19T05:04:13.826Z,4.50
2018-09-19T05:06:44.994Z,4.33
2018-09-19T05:09:17.066Z,4.50
2018-09-19T05:11:48.513Z,6.00
2018-09-19T05:14:28.214Z,4.73
2018-09-19T05:16:59.907Z,5.10
2018-09-19T05:19:41.211Z,4.57
2018-09-19T05:22:12.061Z,5.13
2018-09-19T05:24:43.448Z,6.87
2018-09-19T05:27:16.710Z,4.87
2018-09-19T05:29:50.260Z,4.87
2018-09-19T05:32:29.516Z,4.13
2018-09-19T05:35:01.865Z,4.10
2018-09-19T05:37:33.354Z,4.87
2018-09-19T05:40:05.616Z,3.63
2018-09-19T05:42:46.093Z,4.57
2018-09-19T05:45:17.763Z,3.97
2018-09-19T05:47:57.002Z,4.50
2018-09-19T05:50:28.712Z,5.20
2018-09-19T05:52:59.083Z,4.47
2018-09-19T05:55:31.398Z,5.03
2018-09-19T05:58:01.677Z,3.70
2018-09-19T06:00:32.897Z,5.93
2018-09-19T06:03:04.955Z,4.80
2018-09-19T06:05:35.776Z,4.40
2018-09-19T06:08:06.486Z,3.97
2018-09-19T06:10:38.357Z,4.70
2018-09-19T06:13:10.117Z,4.70
2018-09-19T06:15:42.966Z,4.03
2018-09-19T06:18:14.186Z,4.73
2018-09-19T06:20:45.539Z,5.73
2018-09-19T06:23:16.627Z,5.00
2018-09-19T06:25:48.135Z,4.43
2018-09-19T06:28:19.288Z,6.10
2018-09-19T06:30:50.270Z,5.30
2018-09-19T06:33:22.303Z,3.97
2018-09-19T06:35:53.326Z,4.47
2018-09-19T06:38:24.541Z,4.37
2018-09-19T06:40:56.109Z,4.80
2018-09-19T06:43:26.529Z,4.27
2018-09-19T06:45:57.986Z,4.27
2018-09-19T06:48:30.186Z,4.10
2018-09-19T06:51:02.588Z,4.10
2018-09-19T06:53:33.557Z,5.10
2018-09-19T06:56:04.760Z,5.30
2018-09-19T06:58:36.026Z,4.63
2018-09-19T07:01:07.456Z,4.00
2018-09-19T07:03:39.246Z,4.73
2018-09-19T07:06:10.756Z,4.17
2018-09-19T07:08:41.780Z,4.40
2018-09-19T07:11:13.686Z,6.07
2018-09-19T07:13:44.925Z,4.40
2018-09-19T07:16:16.731Z,3.90
2018-09-19T07:18:49.703Z,4.53
2018-09-19T07:21:21.016Z,5.10
2018-09-19T07:23:51.909Z,3.90
2018-09-19T07:26:27.226Z,3.73
2018-09-19T07:28:57.995Z,4.83
2018-09-19T07:31:30.675Z,5.00
2018-09-19T07:34:02.466Z,5.23
2018-09-19T07:36:33.976Z,4.07
2018-09-19T07:39:09.339Z,4.63
2018-09-19T07:41:42.000Z,4.90
2018-09-19T07:44:13.213Z,3.50
2018-09-19T07:46:44.264Z,3.60
2018-09-19T07:49:15.923Z,4.53
2018-09-19T07:57:30.886Z,3.90
2018-09-19T08:00:10.936Z,3.80
2018-09-19T08:02:51.905Z,4.07
2018-09-19T08:05:31.696Z,3.90
2018-09-19T08:08:11.552Z,3.50
2018-09-19T08:19:16.078Z,5.60
2018-09-19T08:21:53.902Z,5.13
2018-09-19T08:24:33.584Z,6.80
2018-09-19T08:27:13.693Z,4.77
2018-09-19T08:32:36.826Z,4.33
2018-09-19T08:35:16.419Z,5.57
2018-09-19T08:37:56.044Z,3.67
2018-09-19T08:40:36.017Z,4.13
2018-09-19T08:43:14.883Z,3.77
2018-09-19T08:45:53.344Z,3.53
2018-09-19T08:48:33.260Z,3.43
2018-09-19T08:51:13.282Z,16.63
2018-09-19T08:53:53.170Z,4.80
2018-09-19T08:56:32.962Z,4.13
2018-09-19T08:59:12.768Z,4.50
2018-09-19T09:01:52.214Z,3.83
2018-09-19T09:04:31.833Z,3.13
2018-09-19T09:07:09.769Z,3.53
2018-09-19T09:09:49.651Z,2.90
2018-09-19T09:12:30.134Z,5.43
2018-09-19T09:15:07.231Z,5.37
2018-09-19T09:17:46.449Z,3.23
2018-09-19T09:20:24.815Z,3.53
2018-09-19T09:23:04.523Z,2.87
2018-09-19T09:25:38.133Z,2.80
2018-09-19T09:28:15.510Z,3.00
2018-09-19T09:30:55.299Z,2.70
2018-09-19T09:33:35.163Z,3.00
2018-09-19T09:36:15.128Z,2.80
2018-09-19T09:38:54.690Z,2.80
2018-09-19T09:41:34.235Z,4.17
2018-09-19T09:44:13.856Z,3.30
2018-09-19T09:46:53.434Z,2.67
2018-09-19T09:49:31.522Z,3.57
2018-09-19T09:52:10.864Z,4.43
2018-09-19T09:54:50.300Z,2.77
2018-09-19T09:57:27.827Z,2.70
2018-09-19T10:00:06.144Z,2.57
2018-09-19T10:02:45.712Z,2.67
2018-09-19T10:05:25.484Z,2.67
2018-09-19T10:08:05.073Z,2.73
2018-09-19T10:10:45.013Z,2.27
2018-09-19T10:13:24.701Z,2.80
2018-09-19T10:16:04.435Z,2.70
2018-09-19T10:18:44.558Z,2.73
2018-09-19T10:21:24.016Z,2.60
2018-09-19T10:24:03.689Z,2.70
2018-09-19T10:26:43.465Z,2.37
2018-09-19T10:29:23.550Z,2.43
2018-09-19T10:32:02.931Z,3.40
2018-09-19T10:34:42.735Z,3.67
2018-09-19T10:37:22.509Z,2.57
2018-09-19T10:40:00.740Z,2.53
2018-09-19T10:42:39.962Z,3.43
2018-09-19T10:45:19.322Z,2.93
2018-09-19T10:47:59.344Z,2.90
2018-09-19T10:50:40.203Z,2.93
2018-09-19T10:53:19.532Z,3.07
2018-09-19T10:55:59.819Z,2.60
2018-09-19T10:58:39.481Z,4.03
2018-09-19T11:01:20.071Z,3.00
2018-09-19T11:04:00.001Z,2.77
2018-09-19T11:06:40.123Z,3.13
2018-09-19T11:09:20.321Z,2.60
2018-09-19T11:11:59.725Z,4.63
2018-09-19T11:14:39.650Z,3.03
2018-09-19T11:17:19.080Z,5.37
2018-09-19T11:20:00.147Z,3.47
2018-09-19T11:22:40.007Z,3.43
2018-09-19T11:25:19.780Z,2.90
2018-09-19T11:28:00.102Z,2.93
2018-09-19T11:30:40.287Z,3.57
2018-09-19T11:33:18.075Z,3.53
2018-09-19T11:35:57.969Z,3.80
2018-09-19T11:38:38.416Z,3.47
2018-09-19T11:41:18.298Z,4.17
2018-09-19T11:43:58.146Z,3.27
2018-09-19T11:46:37.910Z,2.97
2018-09-19T11:49:17.587Z,2.90
2018-09-19T11:51:57.187Z,3.07
2018-09-19T11:54:36.436Z,3.00
2018-09-19T11:57:15.627Z,3.13
2018-09-19T11:59:55.136Z,2.97
2018-09-19T12:02:35.031Z,3.30
2018-09-19T12:05:16.633Z,2.90
2018-09-19T12:07:56.409Z,2.70
2018-09-19T12:10:36.136Z,3.40
2018-09-19T12:13:16.399Z,2.97
2018-09-19T12:15:56.223Z,2.90
2018-09-19T12:18:33.882Z,3.30
2018-09-19T12:21:13.758Z,2.83
2018-09-19T12:23:50.300Z,3.10
2018-09-19T12:26:29.835Z,4.20
2018-09-19T12:29:10.008Z,3.30
2018-09-19T12:31:50.393Z,2.73
2018-09-19T12:34:30.254Z,3.13
2018-09-19T12:37:01.924Z,3.30
2018-09-19T12:39:41.917Z,3.07
2018-09-19T12:42:22.075Z,3.67
2018-09-19T12:45:02.613Z,2.60
2018-09-19T12:47:42.892Z,4.50
2018-09-19T12:50:23.103Z,3.20
2018-09-19T12:53:01.019Z,2.70
2018-09-19T12:55:40.698Z,2.93
2018-09-19T12:58:19.917Z,4.03
2018-09-19T13:00:59.585Z,3.13
2018-09-19T13:03:36.312Z,2.70
2018-09-19T13:06:16.461Z,4.13
2018-09-19T13:08:56.103Z,3.33
2018-09-19T13:11:37.090Z,2.73
2018-09-19T13:14:17.065Z,2.70
2018-09-19T13:16:56.469Z,2.87
2018-09-19T13:19:36.867Z,3.20
2018-09-19T13:22:17.254Z,3.30
2018-09-19T13:24:57.722Z,3.10
2018-09-19T13:27:38.805Z,2.77
2018-09-19T13:30:18.607Z,3.10
2018-09-19T13:32:58.249Z,3.13
2018-09-19T13:35:37.962Z,2.90
2018-09-19T13:38:16.426Z,3.03
2018-09-19T13:40:56.256Z,3.23
2018-09-19T13:43:36.037Z,3.77
2018-09-19T13:46:16.026Z,3.20
2018-09-19T13:48:59.388Z,3.40
2018-09-19T13:51:39.412Z,3.50
2018-09-19T13:54:19.271Z,3.00
2018-09-19T13:56:51.781Z,3.17
2018-09-19T13:59:31.980Z,3.40
2018-09-19T14:02:10.995Z,4.43
2018-09-19T14:04:49.631Z,3.30
2018-09-19T14:07:29.698Z,3.70
2018-09-19T14:10:09.577Z,3.90
2018-09-19T14:12:49.473Z,3.50
2018-09-19T14:15:29.792Z,3.37
2018-09-19T14:18:10.564Z,3.60
2018-09-19T14:20:50.298Z,4.23
2018-09-19T14:23:31.772Z,3.33
2018-09-19T14:26:04.113Z,3.10
2018-09-19T14:28:42.539Z,3.30
2018-09-19T14:31:21.283Z,3.30
2018-09-19T14:34:01.248Z,3.30
2018-09-19T14:36:41.097Z,3.80
2018-09-19T14:39:20.768Z,3.30
2018-09-19T14:42:00.884Z,3.97
2018-09-19T14:44:40.818Z,4.10
2018-09-19T14:47:20.425Z,4.17
2018-09-19T14:49:52.216Z,3.80
2018-09-19T14:52:26.526Z,3.93
2018-09-19T14:55:06.485Z,4.07
2018-09-19T14:57:46.429Z,3.77
2018-09-19T15:00:26.621Z,3.37
2018-09-19T15:03:06.509Z,4.03
2018-09-19T15:05:46.528Z,3.57
2018-09-19T15:08:26.409Z,4.13
2018-09-19T15:11:06.456Z,3.80
2018-09-19T15:13:46.386Z,3.50
2018-09-19T15:16:25.655Z,4.00
2018-09-19T15:19:07.670Z,3.97
2018-09-19T15:21:48.938Z,3.57
2018-09-19T15:24:28.919Z,3.90
2018-09-19T15:27:07.054Z,3.70
2018-09-19T15:29:47.041Z,3.47
2018-09-19T15:32:27.104Z,3.73
2018-09-19T15:35:07.166Z,3.60
2018-09-19T15:37:46.986Z,3.57
2018-09-19T15:40:21.649Z,4.50
2018-09-19T15:43:02.545Z,3.40
2018-09-19T15:45:43.025Z,3.60
2018-09-19T15:48:24.211Z,4.20
2018-09-19T15:51:04.132Z,3.60
2018-09-19T15:53:44.838Z,3.40
2018-09-19T15:56:26.525Z,3.83
2018-09-19T15:59:09.672Z,3.60
2018-09-19T16:01:40.550Z,4.23
2018-09-19T16:04:11.280Z,5.03
2018-09-19T16:06:42.102Z,4.47
2018-09-19T16:09:13.650Z,3.93
2018-09-19T16:11:44.821Z,4.00
2018-09-19T16:14:15.880Z,4.10
2018-09-19T16:16:46.610Z,4.13
2018-09-19T16:19:18.090Z,4.03
2018-09-19T16:22:32.922Z,3.70
2018-09-19T16:25:08.571Z,4.13
2018-09-19T16:27:54.570Z,4.70
2018-09-19T16:30:36.665Z,4.90
2018-09-19T16:33:17.603Z,5.67
2018-09-19T16:36:01.798Z,4.13
2018-09-19T16:38:41.702Z,5.33
2018-09-19T16:41:21.540Z,4.77
2018-09-19T16:44:01.652Z,5.17
2018-09-19T16:46:51.539Z,4.83
2018-09-19T16:49:32.196Z,4.77
2018-09-19T16:52:25.643Z,5.40
2018-09-19T16:55:05.947Z,4.43
2018-09-19T16:57:45.845Z,5.77
2018-09-19T17:00:18.447Z,4.17
2018-09-19T17:02:49.407Z,4.97
2018-09-19T17:05:20.577Z,4.57
2018-09-19T17:07:50.737Z,4.03
2018-09-19T17:10:21.539Z,4.70
2018-09-19T17:13:01.265Z,6.50
2018-09-19T17:15:32.985Z,5.53
2018-09-19T17:18:03.699Z,9.30
2018-09-19T17:20:36.249Z,4.93
2018-09-19T17:23:06.749Z,5.10
2018-09-19T17:25:37.689Z,5.80
2018-09-19T17:28:08.458Z,5.47
2018-09-19T17:30:39.570Z,6.07
2018-09-19T17:33:10.451Z,5.50
2018-09-19T17:35:41.912Z,5.47
2018-09-19T17:38:13.808Z,4.60
2018-09-19T17:40:45.030Z,4.90
2018-09-19T17:43:15.608Z,5.67
2018-09-19T17:45:46.560Z,5.13
2018-09-19T17:48:18.118Z,5.00
2018-09-19T17:50:50.329Z,5.17
2018-09-19T17:53:21.636Z,4.67
2018-09-19T17:55:53.989Z,5.63
2018-09-19T17:58:25.759Z,6.70
2018-09-19T18:00:57.799Z,6.80
2018-09-19T18:03:30.440Z,5.87
2018-09-19T18:06:02.522Z,6.03
2018-09-19T18:08:33.539Z,6.60
2018-09-19T18:11:08.379Z,6.47
2018-09-19T18:13:39.820Z,6.83
2018-09-19T18:16:14.071Z,5.80
2018-09-19T18:18:45.580Z,5.07
2018-09-19T18:21:20.890Z,5.53
2018-09-19T18:23:53.161Z,5.20
2018-09-19T18:26:23.670Z,5.43
2018-09-19T18:28:55.072Z,5.63
2018-09-19T18:31:28.361Z,5.30
2018-09-19T18:33:58.750Z,5.30
2018-09-19T18:36:31.350Z,5.03
2018-09-19T18:39:01.867Z,5.97
2018-09-19T18:41:42.324Z,5.60
2018-09-19T18:44:13.330Z,5.03
2018-09-19T18:46:46.269Z,8.47
2018-09-19T18:49:17.429Z,5.10
2018-09-19T18:51:49.069Z,7.70
2018-09-19T18:54:22.349Z,5.13
2018-09-19T18:56:53.838Z,5.27
2018-09-19T18:59:24.689Z,5.40
2018-09-19T19:01:55.630Z,5.30
2018-09-19T19:04:27.958Z,4.73
2018-09-19T19:06:59.910Z,7.67
2018-09-19T19:09:30.489Z,5.00
2018-09-19T19:12:01.738Z,4.97
2018-09-19T19:14:33.119Z,6.67
2018-09-19T19:17:13.342Z,6.23
2018-09-19T19:19:45.635Z,6.77
2018-09-19T19:22:25.187Z,5.40
2018-09-19T19:24:56.999Z,6.20
2018-09-19T19:27:29.362Z,5.53
2018-09-19T19:30:03.988Z,5.40
2018-09-19T19:32:35.478Z,5.53
2018-09-19T19:35:06.489Z,5.00
2018-09-19T19:37:38.028Z,5.33
2018-09-19T19:40:08.712Z,6.27
2018-09-19T19:42:40.329Z,5.37
2018-09-19T19:45:13.305Z,6.40
2018-09-19T19:47:47.951Z,5.20
2018-09-19T19:50:21.080Z,5.40
2018-09-19T19:52:55.109Z,6.93
2018-09-19T19:55:31.949Z,5.83
2018-09-19T19:58:06.708Z,5.70
2018-09-19T20:00:39.738Z,7.37
2018-09-19T20:03:15.167Z,8.73
2018-09-19T20:05:45.965Z,7.13
2018-09-19T20:08:17.269Z,5.30
2018-09-19T20:10:48.860Z,6.00
2018-09-19T20:13:20.139Z,5.40
2018-09-19T20:15:51.129Z,7.57
2018-09-19T20:18:22.449Z,5.90
2018-09-19T20:20:54.249Z,6.60
2018-09-19T20:23:25.799Z,8.20
2018-09-19T20:25:57.159Z,6.13
2018-09-19T20:28:28.954Z,6.97
2018-09-19T20:31:00.942Z,5.60
2018-09-19T20:33:31.628Z,6.50
2018-09-19T20:36:03.001Z,6.57
2018-09-19T20:38:34.358Z,7.97
2018-09-19T20:41:06.329Z,6.30
2018-09-19T20:43:38.079Z,7.50
2018-09-19T20:46:09.489Z,7.10
2018-09-19T20:48:40.899Z,6.67
2018-09-19T20:51:12.758Z,6.47
2018-09-19T20:53:45.219Z,6.67
2018-09-19T20:56:16.913Z,6.63
2018-09-19T20:58:48.019Z,7.43
2018-09-19T21:01:19.480Z,6.13
2018-09-19T21:03:50.849Z,7.20
2018-09-19T21:06:22.860Z,6.43
2018-09-19T21:08:54.459Z,6.57
2018-09-19T21:11:27.750Z,7.47
2018-09-19T21:13:59.679Z,8.20
2018-09-19T21:16:31.228Z,6.63
2018-09-19T21:19:02.408Z,6.63
2018-09-19T21:21:34.195Z,7.17
2018-09-19T21:24:05.879Z,6.90
2018-09-19T21:26:38.109Z,6.83
2018-09-19T21:29:08.939Z,6.53
2018-09-19T21:31:40.851Z,6.50
2018-09-19T21:34:12.659Z,7.17
2018-09-19T21:36:44.127Z,7.30
2018-09-19T21:39:18.059Z,7.47
2018-09-19T21:41:51.218Z,7.20
2018-09-19T21:44:22.088Z,7.00
2018-09-19T21:46:55.173Z,7.47
2018-09-19T21:49:37.529Z,6.70
2018-09-19T21:52:17.060Z,6.43
2018-09-19T21:55:03.169Z,6.90
2018-09-19T21:57:41.475Z,6.50
2018-09-19T22:00:19.389Z,6.00
2018-09-19T22:02:51.512Z,7.30
2018-09-19T22:05:30.090Z,6.00
2018-09-19T22:08:07.396Z,6.73
2018-09-19T22:10:43.760Z,6.30
2018-09-19T22:16:07.529Z,5.73
2018-09-19T22:18:43.508Z,6.10
2018-09-19T22:21:19.348Z,8.17
2018-09-19T22:23:50.638Z,7.03
2018-09-19T22:26:29.270Z,6.43
2018-09-19T22:29:11.489Z,9.00
2018-09-19T22:31:51.560Z,6.03
2018-09-19T22:37:58.328Z,6.67
2018-09-19T22:40:34.981Z,8.53
2018-09-19T22:43:18.769Z,6.50
2018-09-19T22:48:40.438Z,7.40
2018-09-19T22:51:11.718Z,6.93
2018-09-19T22:53:44.788Z,7.13
2018-09-19T22:56:26.147Z,6.87
2018-09-19T22:58:58.358Z,7.03
2018-09-19T23:01:29.357Z,6.50
2018-09-19T23:04:00.140Z,7.50
2018-09-19T23:06:31.198Z,5.63
2018-09-19T23:09:02.188Z,6.60
2018-09-19T23:11:33.390Z,6.93
2018-09-19T23:14:03.898Z,6.33
2018-09-19T23:16:35.847Z,6.20
2018-09-19T23:19:06.458Z,7.30
2018-09-19T23:21:38.918Z,7.33
2018-09-19T23:24:10.338Z,6.60
2018-09-19T23:26:40.818Z,6.50
2018-09-19T23:29:12.344Z,6.10
2018-09-19T23:31:45.109Z,5.83
2018-09-19T23:34:17.491Z,6.40
2018-09-19T23:36:57.648Z,6.37
2018-09-19T23:39:28.888Z,5.87
2018-09-19T23:42:00.259Z,6.70
2018-09-19T23:44:32.609Z,5.90
2018-09-19T23:47:05.269Z,7.93
2018-09-19T23:49:36.639Z,6.60
2018-09-19T23:52:08.376Z,7.40
2018-09-19T23:54:39.783Z,6.43
2018-09-19T23:57:11.813Z,6.27
2018-09-19T23:59:53.058Z,5.80
